createdAt,value
2019-03-28T00:01:50.953Z,14.13
2019-03-28T00:04:20.293Z,15.23
2019-03-28T00:06:49.626Z,14.93
2019-03-28T00:09:19.514Z,15.03
2019-03-28T00:12:09.440Z,13.03
2019-03-28T00:14:38.785Z,13.85
2019-03-28T00:17:08.118Z,13.58
2019-03-28T00:19:37.454Z,15.45
2019-03-28T00:22:06.803Z,14.10
2019-03-28T00:27:31.599Z,13.72
2019-03-28T00:30:00.934Z,14.60
2019-03-28T00:32:30.285Z,14.95
2019-03-28T00:35:00.229Z,14.80
2019-03-28T00:37:50.262Z,14.33
2019-03-28T00:40:19.607Z,14.65
2019-03-28T00:42:48.924Z,14.63
2019-03-28T00:45:24.191Z,17.07
2019-03-28T00:47:53.532Z,14.73
2019-03-28T00:50:41.982Z,15.20
2019-03-28T00:53:12.948Z,15.88
2019-03-28T00:55:42.297Z,15.40
2019-03-28T00:58:11.635Z,15.45
2019-03-28T01:00:40.976Z,16.17
2019-03-28T01:03:11.173Z,16.65
2019-03-28T01:06:00.512Z,14.05
2019-03-28T01:08:29.855Z,15.90
2019-03-28T01:10:59.193Z,16.52
2019-03-28T01:13:28.543Z,17.32
2019-03-28T01:15:57.882Z,15.32
2019-03-28T01:18:27.222Z,14.98
2019-03-28T01:20:56.567Z,17.23
2019-03-28T01:23:25.908Z,16.65
2019-03-28T01:26:07.953Z,16.10
2019-03-28T01:28:37.284Z,16.50
2019-03-28T01:31:06.620Z,15.95
2019-03-28T01:33:35.964Z,15.13
2019-03-28T01:36:05.299Z,16.40
2019-03-28T01:38:46.479Z,15.85
2019-03-28T01:41:16.248Z,17.32
2019-03-28T01:43:56.342Z,15.72
2019-03-28T01:46:31.395Z,16.97
2019-03-28T01:49:03.593Z,15.85
2019-03-28T01:51:50.877Z,16.00
2019-03-28T01:54:20.225Z,16.77
2019-03-28T01:56:49.563Z,16.32
2019-03-28T01:59:18.903Z,15.55
2019-03-28T02:01:48.247Z,15.93
2019-03-28T02:04:17.581Z,16.07
2019-03-28T02:07:06.018Z,17.12
2019-03-28T02:09:35.353Z,17.20
2019-03-28T02:12:05.289Z,16.15
2019-03-28T02:14:40.855Z,16.75
2019-03-28T02:17:10.190Z,17.90
2019-03-28T02:19:39.546Z,17.60
2019-03-28T02:22:08.878Z,16.32
2019-03-28T02:24:38.214Z,15.75
2019-03-28T02:27:07.558Z,14.15
2019-03-28T02:29:36.886Z,16.05
2019-03-28T02:32:06.238Z,15.68
2019-03-28T02:34:35.572Z,16.27
2019-03-28T02:37:05.192Z,15.28
2019-03-28T02:39:34.515Z,15.32
2019-03-28T02:42:03.843Z,16.15
2019-03-28T02:44:33.194Z,14.98
2019-03-28T02:47:02.539Z,14.50
2019-03-28T02:49:31.875Z,15.28
2019-03-28T02:52:01.488Z,15.65
2019-03-28T02:54:32.459Z,14.87
2019-03-28T02:57:01.807Z,17.55
2019-03-28T02:59:31.142Z,15.48
2019-03-28T03:02:00.602Z,16.52
2019-03-28T03:04:29.946Z,14.90
2019-03-28T03:06:59.367Z,16.77
2019-03-28T03:09:40.972Z,15.78
2019-03-28T03:12:10.303Z,17.05
2019-03-28T03:14:39.642Z,16.70
2019-03-28T03:17:08.996Z,17.12
2019-03-28T03:19:38.335Z,18.23
2019-03-28T03:22:07.694Z,16.57
2019-03-28T03:24:37.040Z,17.15
2019-03-28T03:27:06.347Z,18.60
2019-03-28T03:29:35.768Z,17.80
2019-03-28T03:32:05.106Z,18.10
2019-03-28T03:34:34.455Z,16.00
2019-03-28T03:37:04.195Z,17.77
2019-03-28T03:39:40.409Z,16.00
2019-03-28T03:42:09.884Z,16.73
2019-03-28T03:44:58.317Z,17.35
2019-03-28T03:47:32.878Z,17.27
2019-03-28T03:50:02.229Z,18.90
2019-03-28T03:52:31.559Z,16.70
2019-03-28T03:55:00.897Z,18.15
2019-03-28T03:57:30.244Z,17.00
2019-03-28T03:59:59.582Z,17.37
2019-03-28T04:02:28.907Z,17.40
2019-03-28T04:04:58.242Z,17.80
2019-03-28T04:07:27.594Z,17.98
2019-03-28T04:09:56.932Z,17.80
2019-03-28T04:12:26.288Z,17.80
2019-03-28T04:14:55.608Z,19.10
2019-03-28T04:17:25.205Z,19.55
2019-03-28T04:19:54.573Z,19.37
2019-03-28T04:22:24.217Z,19.62
2019-03-28T04:24:53.561Z,18.87
2019-03-28T04:27:22.892Z,20.17
2019-03-28T04:29:52.230Z,20.15
2019-03-28T04:32:21.574Z,18.37
2019-03-28T04:34:50.904Z,19.32
2019-03-28T04:37:20.247Z,17.25
2019-03-28T04:39:49.595Z,19.70
2019-03-28T04:42:18.934Z,20.23
2019-03-28T04:44:48.268Z,18.62
2019-03-28T04:47:17.598Z,20.08
2019-03-28T04:49:52.479Z,17.20
2019-03-28T04:52:21.812Z,20.55
2019-03-28T04:54:51.146Z,19.65
2019-03-28T04:57:20.492Z,19.32
2019-03-28T04:59:49.829Z,17.42
2019-03-28T05:02:19.184Z,18.25
2019-03-28T05:04:48.509Z,19.37
2019-03-28T05:07:17.839Z,18.80
2019-03-28T05:09:47.178Z,18.48
2019-03-28T05:12:16.511Z,17.20
2019-03-28T05:14:45.858Z,18.07
2019-03-28T05:17:15.192Z,16.93
2019-03-28T05:19:44.534Z,17.42
2019-03-28T05:22:13.869Z,17.05
2019-03-28T05:24:43.227Z,17.05
2019-03-28T05:27:18.188Z,16.45
2019-03-28T05:29:47.531Z,15.80
2019-03-28T05:32:16.863Z,16.15
2019-03-28T05:34:46.203Z,16.37
2019-03-28T05:37:15.547Z,17.48
2019-03-28T05:39:45.336Z,17.42
2019-03-28T05:42:21.395Z,18.07
2019-03-28T05:44:50.729Z,17.52
2019-03-28T05:47:22.102Z,16.67
2019-03-28T05:49:56.514Z,17.20
2019-03-28T05:52:31.623Z,18.12
2019-03-28T05:55:01.037Z,18.65
2019-03-28T05:57:30.707Z,18.55
2019-03-28T06:00:00.434Z,18.48
2019-03-28T06:02:30.023Z,18.50
2019-03-28T06:04:59.371Z,18.12
2019-03-28T06:07:28.715Z,20.12
2019-03-28T06:09:58.058Z,18.25
2019-03-28T06:12:27.401Z,18.02
2019-03-28T06:14:56.735Z,17.90
2019-03-28T06:17:26.080Z,19.07
2019-03-28T06:19:55.416Z,19.40
2019-03-28T06:22:30.657Z,17.92
2019-03-28T06:24:59.989Z,17.82
2019-03-28T06:27:29.319Z,20.27
2019-03-28T06:30:01.804Z,19.82
2019-03-28T06:32:48.781Z,20.00
2019-03-28T06:35:18.403Z,18.82
2019-03-28T06:38:08.242Z,20.72
2019-03-28T06:40:37.602Z,20.75
2019-03-28T06:43:06.930Z,20.82
2019-03-28T06:45:36.262Z,20.43
2019-03-28T06:48:05.603Z,20.05
2019-03-28T06:50:34.936Z,18.85
2019-03-28T06:53:04.344Z,21.37
2019-03-28T06:55:36.767Z,21.57
2019-03-28T06:58:14.423Z,21.00
2019-03-28T07:00:43.760Z,20.27
2019-03-28T07:03:13.452Z,20.35
2019-03-28T07:05:42.790Z,20.97
2019-03-28T07:08:12.123Z,21.82
2019-03-28T07:10:41.753Z,21.33
2019-03-28T07:13:11.087Z,21.82
2019-03-28T07:15:40.430Z,20.55
2019-03-28T07:18:09.764Z,20.48
2019-03-28T07:20:39.094Z,22.77
2019-03-28T07:23:08.439Z,22.22
2019-03-28T07:25:37.773Z,22.13
2019-03-28T07:28:07.107Z,21.48
2019-03-28T07:30:38.107Z,20.82
2019-03-28T07:33:07.443Z,19.15
2019-03-28T07:35:36.802Z,21.42
2019-03-28T07:38:06.110Z,19.80
2019-03-28T07:40:35.670Z,20.50
2019-03-28T07:43:06.720Z,19.98
2019-03-28T07:45:37.682Z,22.63
2019-03-28T07:48:08.658Z,21.90
2019-03-28T07:50:42.416Z,21.47
2019-03-28T07:53:19.567Z,22.00
2019-03-28T07:56:15.908Z,20.20
2019-03-28T07:58:46.903Z,21.93
2019-03-28T08:01:18.308Z,19.90
2019-03-28T08:04:12.298Z,21.27
2019-03-28T08:06:49.671Z,23.33
2019-03-28T08:09:19.956Z,21.87
2019-03-28T08:11:50.915Z,21.40
2019-03-28T08:14:21.891Z,21.60
2019-03-28T08:16:52.851Z,20.37
2019-03-28T08:19:23.830Z,21.10
2019-03-28T08:21:53.157Z,19.07
2019-03-28T08:24:22.488Z,18.37
2019-03-28T08:26:51.820Z,17.80
2019-03-28T08:29:21.143Z,19.60
2019-03-28T08:35:45.359Z,19.80
2019-03-28T08:38:26.035Z,20.00
2019-03-28T08:40:55.683Z,19.30
2019-03-28T08:43:25.009Z,23.50
2019-03-28T08:46:00.530Z,20.97
2019-03-28T08:48:29.860Z,20.13
2019-03-28T08:50:59.223Z,19.57
2019-03-28T08:53:28.547Z,18.37
2019-03-28T08:55:57.875Z,17.47
2019-03-28T08:58:48.185Z,16.97
2019-03-28T09:01:30.640Z,17.50
2019-03-28T09:04:21.006Z,17.90
2019-03-28T09:06:50.291Z,16.90
2019-03-28T09:09:32.974Z,15.30
2019-03-28T09:12:04.294Z,15.90
2019-03-28T09:14:35.270Z,16.37
2019-03-28T09:17:06.237Z,15.60
2019-03-28T09:19:38.933Z,13.27
2019-03-28T09:22:27.362Z,15.53
2019-03-28T09:24:58.339Z,14.70
2019-03-28T09:27:29.303Z,14.40
2019-03-28T09:30:48.844Z,14.53
2019-03-28T09:33:20.612Z,12.13
2019-03-28T09:35:51.780Z,11.70
2019-03-28T09:38:41.786Z,12.53
2019-03-28T09:41:12.907Z,13.60
2019-03-28T09:43:54.670Z,13.13
2019-03-28T09:46:20.043Z,13.23
2019-03-28T09:48:51.012Z,14.73
2019-03-28T09:51:22.170Z,13.00
2019-03-28T09:53:53.132Z,12.77
2019-03-28T09:56:24.119Z,11.90
2019-03-28T09:58:55.085Z,14.07
2019-03-28T10:01:26.187Z,15.00
2019-03-28T10:03:57.158Z,13.20
2019-03-28T10:06:28.418Z,13.63
2019-03-28T10:08:59.513Z,13.20
2019-03-28T10:11:30.503Z,14.87
2019-03-28T10:14:18.925Z,14.67
2019-03-28T10:16:49.899Z,14.17
2019-03-28T10:19:20.864Z,15.90
2019-03-28T10:21:51.846Z,14.63
2019-03-28T10:24:21.176Z,15.80
2019-03-28T10:26:50.565Z,14.87
2019-03-28T10:29:38.997Z,14.20
2019-03-28T10:32:08.327Z,14.97
2019-03-28T10:34:37.672Z,16.87
2019-03-28T10:37:07.002Z,15.20
2019-03-28T10:39:36.334Z,16.10
2019-03-28T10:42:05.753Z,15.63
2019-03-28T10:44:35.467Z,17.30
2019-03-28T10:49:45.692Z,15.73
2019-03-28T10:55:35.722Z,15.00
2019-03-28T10:58:17.598Z,15.87
2019-03-28T11:00:41.753Z,17.10
2019-03-28T11:03:11.097Z,16.30
2019-03-28T11:05:42.080Z,15.53
2019-03-28T11:08:13.062Z,15.07
2019-03-28T11:10:42.410Z,15.43
2019-03-28T11:13:11.746Z,16.50
2019-03-28T11:15:42.719Z,14.40
2019-03-28T11:18:13.802Z,15.60
2019-03-28T11:20:44.840Z,15.70
2019-03-28T11:23:33.516Z,15.30
2019-03-28T11:26:02.853Z,15.77
2019-03-28T11:28:32.214Z,13.53
2019-03-28T11:31:01.529Z,13.70
2019-03-28T11:33:30.867Z,13.50
2019-03-28T11:36:00.209Z,14.17
2019-03-28T11:38:29.544Z,12.53
2019-03-28T11:40:58.866Z,13.47
2019-03-28T11:43:28.263Z,9.40
2019-03-28T11:45:57.597Z,9.83
2019-03-28T11:48:28.581Z,11.10
2019-03-28T11:50:57.914Z,9.87
2019-03-28T11:53:28.879Z,9.37
2019-03-28T11:55:58.216Z,9.30
2019-03-28T11:58:27.543Z,10.00
2019-03-28T12:00:56.875Z,9.53
2019-03-28T12:03:26.223Z,10.10
2019-03-28T12:05:55.791Z,10.50
2019-03-28T12:08:25.141Z,10.47
2019-03-28T12:11:13.862Z,9.70
2019-03-28T12:13:55.012Z,9.23
2019-03-28T12:16:36.791Z,9.93
2019-03-28T12:19:06.130Z,9.93
2019-03-28T12:21:54.800Z,10.30
2019-03-28T12:24:36.780Z,7.93
2019-03-28T12:27:06.110Z,8.40
2019-03-28T12:29:36.023Z,8.30
2019-03-28T12:32:37.443Z,10.10
2019-03-28T12:38:27.245Z,10.43
2019-03-28T12:40:56.618Z,9.67
2019-03-28T12:43:25.956Z,8.83
2019-03-28T12:45:55.291Z,8.77
2019-03-28T12:48:24.621Z,10.63
2019-03-28T12:50:58.973Z,11.07
2019-03-28T12:53:30.812Z,10.90
2019-03-28T12:56:00.143Z,12.00
2019-03-28T12:58:29.479Z,11.10
2019-03-28T13:01:10.430Z,12.43
2019-03-28T13:03:45.784Z,11.47
2019-03-28T13:06:30.323Z,10.23
2019-03-28T13:08:59.651Z,9.53
2019-03-28T13:11:28.980Z,9.43
2019-03-28T13:13:58.311Z,9.43
2019-03-28T13:16:40.302Z,8.63
2019-03-28T13:19:09.881Z,9.00
2019-03-28T13:21:58.626Z,9.30
2019-03-28T13:24:28.140Z,9.30
2019-03-28T13:26:57.462Z,9.00
2019-03-28T13:29:26.790Z,9.60
2019-03-28T13:32:15.466Z,11.03
2019-03-28T13:34:45.110Z,11.67
2019-03-28T13:37:14.452Z,9.90
2019-03-28T13:39:43.773Z,10.60
2019-03-28T13:42:13.115Z,10.77
2019-03-28T13:44:42.443Z,11.60
2019-03-28T13:47:11.779Z,10.70
2019-03-28T13:49:41.119Z,10.63
2019-03-28T13:52:22.209Z,12.27
2019-03-28T13:54:53.037Z,12.77
2019-03-28T13:57:28.267Z,12.27
2019-03-28T13:59:57.607Z,13.67
2019-03-28T14:02:26.939Z,12.43
2019-03-28T14:04:56.281Z,12.07
2019-03-28T14:07:45.027Z,11.03
2019-03-28T14:10:25.595Z,12.07
2019-03-28T14:13:14.275Z,11.97
2019-03-28T14:15:43.622Z,10.87
2019-03-28T14:18:13.255Z,11.97
2019-03-28T14:20:42.587Z,11.73
2019-03-28T14:23:23.678Z,11.83
2019-03-28T14:25:54.030Z,12.40
2019-03-28T14:28:23.363Z,11.60
2019-03-28T14:30:52.708Z,11.30
2019-03-28T14:33:22.039Z,11.20
2019-03-28T14:35:51.372Z,11.33
2019-03-28T14:38:20.973Z,10.60
2019-03-28T14:40:50.308Z,10.10
2019-03-28T14:43:19.629Z,9.93
2019-03-28T14:46:01.437Z,10.50
2019-03-28T14:48:30.799Z,10.57
2019-03-28T14:51:00.119Z,10.70
2019-03-28T14:53:42.035Z,11.10
2019-03-28T15:02:07.830Z,11.10
2019-03-28T15:04:43.491Z,11.30
2019-03-28T15:10:39.395Z,11.70
2019-03-28T15:13:21.268Z,11.37
2019-03-28T15:15:51.023Z,11.67
2019-03-28T15:18:39.699Z,11.20
2019-03-28T15:21:09.051Z,10.97
2019-03-28T15:23:57.720Z,11.50
2019-03-28T15:26:39.621Z,10.87
2019-03-28T15:29:20.962Z,11.00
2019-03-28T15:31:50.306Z,11.23
2019-03-28T15:34:19.637Z,10.30
2019-03-28T15:36:50.615Z,10.43
2019-03-28T15:39:19.949Z,11.23
2019-03-28T15:41:49.279Z,10.70
2019-03-28T15:44:18.619Z,11.03
2019-03-28T15:46:47.953Z,11.20
2019-03-28T15:49:17.290Z,11.03
2019-03-28T15:52:05.954Z,9.47
2019-03-28T15:54:47.828Z,10.23
2019-03-28T15:57:28.896Z,10.67
2019-03-28T15:59:58.238Z,9.47
2019-03-28T16:02:27.568Z,11.33
2019-03-28T16:05:08.678Z,9.43
2019-03-28T16:07:38.271Z,10.57
2019-03-28T16:10:20.229Z,9.50
2019-03-28T16:12:49.550Z,9.47
2019-03-28T16:15:18.879Z,10.20
2019-03-28T16:17:59.950Z,9.20
2019-03-28T16:20:29.284Z,9.03
2019-03-28T16:22:58.623Z,10.20
2019-03-28T16:25:28.366Z,8.17
2019-03-28T16:27:57.695Z,8.40
2019-03-28T16:30:39.470Z,7.60
2019-03-28T16:33:20.602Z,8.20
2019-03-28T16:35:49.925Z,7.47
2019-03-28T16:38:19.649Z,7.50
2019-03-28T16:41:09.630Z,7.73
2019-03-28T16:43:38.965Z,8.00
2019-03-28T16:46:20.059Z,7.47
2019-03-28T16:49:01.214Z,7.37
2019-03-28T16:51:30.533Z,8.00
2019-03-28T16:53:59.852Z,7.40
2019-03-28T16:56:29.255Z,8.23
2019-03-28T16:58:58.590Z,7.70
2019-03-28T17:01:28.196Z,7.10
2019-03-28T17:03:57.514Z,7.77
2019-03-28T17:06:46.016Z,7.47
2019-03-28T17:12:53.149Z,8.67
2019-03-28T17:15:25.736Z,8.93
2019-03-28T17:18:12.984Z,11.13
2019-03-28T17:20:42.464Z,10.20
2019-03-28T17:23:11.858Z,11.27
2019-03-28T17:25:41.193Z,10.50
2019-03-28T17:28:10.524Z,10.60
2019-03-28T17:30:39.864Z,11.57
2019-03-28T17:33:09.193Z,12.37
2019-03-28T17:35:38.537Z,10.90
2019-03-28T17:38:07.867Z,12.40
2019-03-28T17:40:39.020Z,12.70
2019-03-28T17:43:08.420Z,11.20
2019-03-28T17:45:37.747Z,11.60
2019-03-28T17:48:08.723Z,12.70
2019-03-28T17:50:38.051Z,12.70
2019-03-28T17:56:09.534Z,12.63
2019-03-28T17:58:59.843Z,15.00
2019-03-28T18:01:29.215Z,13.17
2019-03-28T18:03:58.624Z,12.30
2019-03-28T18:06:27.958Z,13.00
2019-03-28T18:08:58.925Z,12.37
2019-03-28T18:11:33.889Z,11.93
2019-03-28T18:17:06.692Z,11.47
2019-03-28T18:19:36.026Z,12.83
2019-03-28T18:22:05.368Z,12.20
2019-03-28T18:24:34.815Z,12.20
2019-03-28T18:27:04.159Z,12.70
2019-03-28T18:29:35.957Z,11.63
2019-03-28T18:32:10.113Z,10.67
2019-03-28T18:34:39.487Z,11.67
2019-03-28T18:37:08.866Z,10.80
2019-03-28T18:39:38.286Z,11.87
2019-03-28T18:42:07.661Z,10.20
2019-03-28T18:44:37.046Z,10.40
2019-03-28T18:47:06.748Z,10.97
2019-03-28T18:49:36.149Z,10.70
2019-03-28T18:52:07.403Z,9.67
2019-03-28T18:54:42.013Z,11.47
2019-03-28T18:57:11.462Z,10.00
2019-03-28T18:59:41.159Z,9.87
2019-03-28T19:02:10.577Z,10.27
2019-03-28T19:04:40.019Z,10.00
2019-03-28T19:07:10.020Z,10.83
2019-03-28T19:09:46.236Z,10.03
2019-03-28T19:12:15.798Z,9.67
2019-03-28T19:18:27.446Z,9.97
2019-03-28T19:20:57.057Z,10.33
2019-03-28T19:23:27.056Z,9.63
2019-03-28T19:25:58.209Z,9.77
2019-03-28T19:28:29.480Z,10.80
2019-03-28T19:31:18.921Z,9.77
2019-03-28T19:33:48.818Z,10.33
2019-03-28T19:36:18.450Z,9.93
2019-03-28T19:39:27.910Z,11.30
2019-03-28T19:44:57.978Z,12.30
2019-03-28T19:47:28.690Z,11.63
2019-03-28T19:50:48.126Z,10.80
2019-03-28T19:53:17.947Z,11.50
2019-03-28T19:56:08.051Z,11.90
2019-03-28T19:58:37.603Z,11.40
2019-03-28T20:01:07.247Z,11.60
2019-03-28T20:03:36.821Z,11.93
2019-03-28T20:12:09.830Z,11.70
2019-03-28T20:14:39.417Z,12.57
2019-03-28T20:17:09.047Z,11.70
2019-03-28T20:19:38.625Z,11.43
2019-03-28T20:22:08.180Z,12.27
2019-03-28T20:24:43.563Z,11.57
2019-03-28T20:27:13.477Z,11.70
2019-03-28T20:29:55.387Z,11.70
2019-03-28T20:32:24.953Z,12.80
2019-03-28T20:34:54.556Z,13.20
2019-03-28T20:37:44.845Z,14.10
2019-03-28T20:43:16.632Z,11.60
2019-03-28T20:45:46.172Z,12.80
2019-03-28T20:48:16.943Z,10.47
2019-03-28T20:50:52.014Z,10.30
2019-03-28T20:53:21.515Z,11.50
2019-03-28T20:55:51.774Z,11.07
2019-03-28T20:58:28.727Z,10.73
2019-03-28T21:04:00.307Z,10.53
2019-03-28T21:06:49.395Z,10.47
2019-03-28T21:09:19.171Z,11.60
2019-03-28T21:11:49.092Z,10.70
2019-03-28T21:14:38.950Z,11.37
2019-03-28T21:17:13.775Z,11.10
2019-03-28T21:19:43.299Z,11.53
2019-03-28T21:22:12.774Z,12.10
2019-03-28T21:24:42.225Z,12.10
2019-03-28T21:27:11.959Z,12.50
2019-03-28T21:29:48.695Z,10.97
2019-03-28T21:32:18.885Z,12.10
2019-03-28T21:34:56.428Z,11.47
2019-03-28T21:37:31.005Z,10.93
2019-03-28T21:40:01.315Z,10.70
2019-03-28T21:42:50.467Z,12.20
2019-03-28T21:45:19.867Z,11.00
2019-03-28T21:47:49.201Z,10.87
2019-03-28T21:50:18.539Z,11.13
2019-03-28T21:52:47.867Z,10.90
2019-03-28T21:55:17.277Z,11.40
2019-03-28T21:58:05.708Z,10.93
2019-03-28T22:00:35.064Z,11.10
2019-03-28T22:03:04.401Z,12.23
2019-03-28T22:05:33.732Z,11.30
2019-03-28T22:08:03.070Z,12.90
2019-03-28T22:10:32.674Z,12.03
2019-03-28T22:13:02.013Z,11.30
2019-03-28T22:15:50.435Z,11.57
2019-03-28T22:18:19.782Z,12.10
2019-03-28T22:21:08.447Z,12.27
2019-03-28T22:23:37.784Z,12.80
2019-03-28T22:26:07.110Z,12.53
2019-03-28T22:28:38.111Z,12.40
2019-03-28T22:31:46.138Z,14.40
2019-03-28T22:34:15.856Z,13.53
2019-03-28T22:36:56.444Z,14.30
2019-03-28T22:39:21.355Z,13.20
2019-03-28T22:41:50.682Z,13.00
2019-03-28T22:44:20.018Z,13.40
2019-03-28T22:46:49.350Z,14.70
2019-03-28T22:49:19.015Z,14.37
2019-03-28T22:51:48.351Z,15.00
2019-03-28T22:54:17.680Z,13.20
2019-03-28T22:56:53.287Z,14.27
2019-03-28T22:59:22.620Z,13.57
2019-03-28T23:01:51.955Z,13.53
2019-03-28T23:04:21.298Z,14.13
2019-03-28T23:06:50.623Z,13.93
2019-03-28T23:09:19.965Z,15.03
2019-03-28T23:11:49.291Z,14.90
2019-03-28T23:14:18.943Z,14.13
2019-03-28T23:17:08.746Z,14.63
2019-03-28T23:19:38.088Z,14.37
2019-03-28T23:22:27.027Z,14.90
2019-03-28T23:24:56.632Z,14.17
2019-03-28T23:27:26.878Z,14.80
2019-03-28T23:30:02.843Z,14.70
2019-03-28T23:32:38.919Z,15.23
2019-03-28T23:35:14.813Z,15.90
2019-03-28T23:37:51.295Z,15.50
2019-03-28T23:40:20.904Z,15.20
2019-03-28T23:42:50.235Z,15.03
2019-03-28T23:45:27.233Z,16.27
2019-03-28T23:47:56.563Z,15.03
2019-03-28T23:50:25.901Z,15.37
2019-03-28T23:52:55.240Z,17.10
2019-03-28T23:55:36.955Z,16.87
2019-03-28T23:58:06.317Z,16.60
